Time;durP1;ratioP1;P1;durP2;ratioP2;P2;SDS_P1;SDS_P2;PMS_P1;PMS_P2;Temp;Humidity;BMP_temperature;BMP_pressure;BME280_temperature;BME280_humidity;BME280_pressure;Samples;Min_cycle;Max_cycle;Signal;HPM_P1;HPM_P2
2022/11/30 00:01:52;;;;;;;;;;;7.00;99.90;;;;;;5086808;28;19982;-71
2022/11/30 00:04:18;;;;;;;;;;;7.00;99.90;;;;;;5073102;28;19916;-72
2022/11/30 00:06:44;;;;;;;;;;;7.00;99.90;;;;;;5087574;28;19996;-71
2022/11/30 00:09:10;;;;;;;;;;;7.00;99.90;;;;;;5091776;28;19913;-71
2022/11/30 00:11:35;;;;;;;;;;;7.00;99.90;;;;;;5091624;28;19912;-71
2022/11/30 00:14:01;;;;;;;;;;;7.00;99.90;;;;;;5092655;28;19915;-71
2022/11/30 00:16:27;;;;;;;;;;;7.00;99.90;;;;;;5093089;28;19995;-76
2022/11/30 00:18:52;;;;;;;;;;;7.00;99.90;;;;;;5087113;28;19912;-71
2022/11/30 00:21:18;;;;;;;;;;;7.00;99.90;;;;;;5094246;28;20006;-71
2022/11/30 00:23:45;;;;;;;;;;;6.90;99.90;;;;;;5094348;28;19908;-71
2022/11/30 00:26:12;;;;;;;;;;;6.90;99.90;;;;;;5092730;28;20011;-71
2022/11/30 00:28:38;;;;;;;;;;;6.90;99.90;;;;;;5093010;28;19916;-71
2022/11/30 00:31:05;;;;;;;;;;;6.90;99.90;;;;;;5092386;28;19908;-71
2022/11/30 00:33:31;;;;;;;;;;;6.90;99.90;;;;;;5092106;28;19943;-71
2022/11/30 00:35:58;;;;;;;;;;;6.90;99.90;;;;;;5077695;28;19908;-71
2022/11/30 00:38:24;;;;;;;;;;;6.90;99.90;;;;;;5091219;28;19912;-71
2022/11/30 00:40:50;;;;;;;;;;;6.90;99.90;;;;;;5093248;28;19908;-74
2022/11/30 00:43:15;;;;;;;;;;;6.90;99.90;;;;;;5093443;28;20286;-71
2022/11/30 00:45:41;;;;;;;;;;;6.90;99.90;;;;;;5092966;28;19919;-70
2022/11/30 00:48:07;;;;;;;;;;;6.90;99.90;;;;;;5092985;28;20030;-71
2022/11/30 00:50:32;;;;;;;;;;;6.90;99.90;;;;;;5092978;28;20006;-71
2022/11/30 00:52:58;;;;;;;;;;;6.90;99.90;;;;;;5091036;28;19996;-73
2022/11/30 00:55:24;;;;;;;;;;;6.90;99.90;;;;;;5093036;28;19908;-71
2022/11/30 00:57:49;;;;;;;;;;;6.90;99.90;;;;;;5091371;28;19915;-71
2022/11/30 01:00:15;;;;;;;;;;;6.90;99.90;;;;;;5092340;28;19920;-71
2022/11/30 01:02:41;;;;;;;;;;;6.90;99.90;;;;;;5092521;28;19912;-71
2022/11/30 01:05:07;;;;;;;;;;;6.90;99.90;;;;;;5095933;28;19916;-71
2022/11/30 01:07:32;;;;;;;;;;;6.90;99.90;;;;;;5091379;28;19938;-71
2022/11/30 01:09:58;;;;;;;;;;;6.90;99.90;;;;;;5086877;28;19908;-71
2022/11/30 01:12:23;;;;;;;;;;;6.90;99.90;;;;;;5084853;28;20011;-71
2022/11/30 01:14:49;;;;;;;;;;;6.90;99.90;;;;;;5092373;28;19927;-71
2022/11/30 01:17:15;;;;;;;;;;;6.90;99.90;;;;;;5087762;28;19923;-71
2022/11/30 01:19:40;;;;;;;;;;;6.90;99.90;;;;;;5090512;28;19916;-71
2022/11/30 01:22:06;;;;;;;;;;;6.80;99.90;;;;;;5099298;28;19997;-71
2022/11/30 01:24:32;;;;;;;;;;;6.80;99.90;;;;;;5092646;28;19912;-74
2022/11/30 01:26:58;;;;;;;;;;;6.80;99.90;;;;;;5077287;28;19931;-71
2022/11/30 01:29:23;;;;;;;;;;;6.80;99.90;;;;;;5072849;28;20427;-71
2022/11/30 01:31:49;;;;;;;;;;;6.80;99.90;;;;;;5073909;28;19916;-71
2022/11/30 01:34:15;;;;;;;;;;;6.80;99.90;;;;;;5086993;28;19920;-72
2022/11/30 01:36:42;;;;;;;;;;;6.80;99.90;;;;;;5089896;28;20006;-71
2022/11/30 01:39:08;;;;;;;;;;;6.90;99.90;;;;;;5096236;28;19915;-72
2022/11/30 01:41:34;;;;;;;;;;;6.80;99.90;;;;;;5094441;28;19927;-71
2022/11/30 01:44:06;;;;;;;;;;;6.90;99.90;;;;;;5090239;28;19973;-71
2022/11/30 01:46:35;;;;;;;;;;;6.80;99.90;;;;;;5095572;28;20306;-72
2022/11/30 01:49:09;;;;;;;;;;;6.90;99.90;;;;;;5096701;28;19976;-71
2022/11/30 01:51:36;;;;;;;;;;;6.90;99.90;;;;;;5096657;28;19912;-71
2022/11/30 01:54:03;;;;;;;;;;;6.90;99.90;;;;;;5094177;28;20045;-70
2022/11/30 01:56:29;;;;;;;;;;;6.90;99.90;;;;;;5095436;28;19916;-71
2022/11/30 01:58:54;;;;;;;;;;;6.80;99.90;;;;;;5096355;28;19912;-71
2022/11/30 02:01:20;;;;;;;;;;;6.80;99.90;;;;;;5092653;28;19908;-71
2022/11/30 02:03:54;;;;;;;;;;;6.80;99.90;;;;;;5094285;28;19919;-70
2022/11/30 02:06:21;;;;;;;;;;;6.80;99.90;;;;;;5085589;28;19919;-72
2022/11/30 02:08:46;;;;;;;;;;;6.80;99.90;;;;;;5079201;28;20343;-70
2022/11/30 02:11:13;;;;;;;;;;;6.80;99.90;;;;;;5079808;28;19909;-71
2022/11/30 02:13:52;;;;;;;;;;;6.80;99.90;;;;;;5094323;28;19977;-70
2022/11/30 02:16:39;;;;;;;;;;;6.80;99.90;;;;;;5090823;28;20368;-70
2022/11/30 02:19:05;;;;;;;;;;;6.80;99.90;;;;;;5100799;28;19913;-70
2022/11/30 02:21:49;;;;;;;;;;;6.80;99.90;;;;;;5097012;28;19997;-70
2022/11/30 02:24:32;;;;;;;;;;;6.80;99.90;;;;;;5098745;28;19912;-70
2022/11/30 02:27:04;;;;;;;;;;;6.80;99.90;;;;;;5099470;28;19951;-70
2022/11/30 02:29:51;;;;;;;;;;;6.80;99.90;;;;;;5098204;28;19930;-70
2022/11/30 02:32:28;;;;;;;;;;;6.80;99.90;;;;;;5076449;28;19908;-70
2022/11/30 02:34:55;;;;;;;;;;;6.80;99.90;;;;;;5084866;28;19913;-70
2022/11/30 02:37:22;;;;;;;;;;;6.80;99.90;;;;;;5093496;28;20403;-70
2022/11/30 02:39:48;;;;;;;;;;;6.80;99.90;;;;;;5095888;28;20298;-70
2022/11/30 02:42:14;;;;;;;;;;;6.80;99.90;;;;;;5095442;28;19908;-70
2022/11/30 02:44:41;;;;;;;;;;;6.90;99.90;;;;;;5092638;28;19916;-70
2022/11/30 02:47:13;;;;;;;;;;;6.80;99.90;;;;;;5076961;28;20062;-70
2022/11/30 02:49:51;;;;;;;;;;;6.80;99.90;;;;;;5076256;28;19908;-70
2022/11/30 02:52:18;;;;;;;;;;;6.90;99.90;;;;;;5091910;28;19943;-70
2022/11/30 02:54:47;;;;;;;;;;;6.90;99.90;;;;;;5095063;28;19947;-70
2022/11/30 02:57:12;;;;;;;;;;;7.00;99.90;;;;;;5095357;28;19912;-70
2022/11/30 02:59:38;;;;;;;;;;;7.00;99.90;;;;;;5092998;28;20346;-70
2022/11/30 03:02:04;;;;;;;;;;;7.00;99.90;;;;;;5094808;28;19984;-70
2022/11/30 03:04:29;;;;;;;;;;;7.00;99.90;;;;;;5092664;28;20074;-70
2022/11/30 03:06:55;;;;;;;;;;;7.00;99.90;;;;;;5094696;28;20337;-70
2022/11/30 03:09:21;;;;;;;;;;;7.00;99.90;;;;;;5085880;28;19939;-70
2022/11/30 03:11:46;;;;;;;;;;;7.00;99.90;;;;;;5089301;28;19908;-70
2022/11/30 03:14:12;;;;;;;;;;;7.00;99.90;;;;;;5094567;28;19958;-70
2022/11/30 03:16:38;;;;;;;;;;;7.00;99.90;;;;;;5094834;28;20080;-69
2022/11/30 03:19:04;;;;;;;;;;;7.00;99.90;;;;;;5092733;28;20016;-70
2022/11/30 03:21:30;;;;;;;;;;;7.00;99.90;;;;;;5093119;28;19926;-69
2022/11/30 03:23:55;;;;;;;;;;;7.10;99.90;;;;;;5094129;28;19909;-70
2022/11/30 03:26:21;;;;;;;;;;;7.00;99.90;;;;;;5085419;28;19986;-70
2022/11/30 03:28:47;;;;;;;;;;;7.10;99.90;;;;;;5072222;28;19909;-70
2022/11/30 03:31:13;;;;;;;;;;;7.10;99.90;;;;;;5074785;28;20310;-70
2022/11/30 03:33:42;;;;;;;;;;;7.10;99.90;;;;;;5072941;28;19908;-69
2022/11/30 03:36:09;;;;;;;;;;;7.10;99.90;;;;;;5076785;28;20325;-70
2022/11/30 03:38:35;;;;;;;;;;;7.20;99.90;;;;;;5094535;28;19965;-69
2022/11/30 03:41:05;;;;;;;;;;;7.10;99.90;;;;;;5126759;27;19912;-69
2022/11/30 03:43:31;;;;;;;;;;;7.20;99.90;;;;;;5091735;28;20020;-69
2022/11/30 03:45:56;;;;;;;;;;;7.20;99.90;;;;;;5090654;28;19923;-69
2022/11/30 03:48:22;;;;;;;;;;;7.20;99.90;;;;;;5092733;28;19987;-70
2022/11/30 03:50:49;;;;;;;;;;;7.20;99.90;;;;;;5094226;28;19916;-70
2022/11/30 03:53:15;;;;;;;;;;;7.20;99.90;;;;;;5093949;28;19907;-69
2022/11/30 03:55:41;;;;;;;;;;;7.20;99.90;;;;;;5092834;28;19962;-69
2022/11/30 03:58:07;;;;;;;;;;;7.20;99.90;;;;;;5088672;28;19915;-69
2022/11/30 04:00:32;;;;;;;;;;;7.20;99.90;;;;;;5084081;28;19915;-69
2022/11/30 04:02:58;;;;;;;;;;;7.20;99.90;;;;;;5074195;28;19909;-69
2022/11/30 04:05:24;;;;;;;;;;;7.20;99.90;;;;;;5071809;28;19987;-69
2022/11/30 04:07:49;;;;;;;;;;;7.20;99.90;;;;;;5073974;28;19908;-70
2022/11/30 04:10:15;;;;;;;;;;;7.20;99.90;;;;;;5073236;28;19912;-69
2022/11/30 04:12:41;;;;;;;;;;;7.20;99.90;;;;;;5075810;28;19916;-69
2022/11/30 04:15:07;;;;;;;;;;;7.10;99.90;;;;;;5090350;28;19927;-69
2022/11/30 04:17:32;;;;;;;;;;;7.20;99.90;;;;;;5084452;28;19912;-69
2022/11/30 04:19:58;;;;;;;;;;;7.10;99.90;;;;;;5091923;28;19991;-69
2022/11/30 04:22:24;;;;;;;;;;;7.10;99.90;;;;;;5091851;28;19991;-69
2022/11/30 04:24:52;;;;;;;;;;;7.10;99.90;;;;;;5093147;28;20015;-69
2022/11/30 04:27:17;;;;;;;;;;;7.20;99.90;;;;;;5093638;28;19990;-70
2022/11/30 04:29:43;;;;;;;;;;;7.20;99.90;;;;;;5093672;28;20300;-69
2022/11/30 04:32:09;;;;;;;;;;;7.20;99.90;;;;;;5093102;28;20363;-70
2022/11/30 04:34:34;;;;;;;;;;;7.20;99.90;;;;;;5082784;28;19959;-69
2022/11/30 04:37:00;;;;;;;;;;;7.20;99.90;;;;;;5093600;28;19908;-69
2022/11/30 04:39:26;;;;;;;;;;;7.20;99.90;;;;;;5093360;28;19908;-69
2022/11/30 04:41:51;;;;;;;;;;;7.10;99.90;;;;;;5092272;28;19935;-69
2022/11/30 04:44:17;;;;;;;;;;;7.10;99.90;;;;;;5093652;28;20387;-69
2022/11/30 04:46:43;;;;;;;;;;;7.10;99.90;;;;;;5090426;28;19955;-70
2022/11/30 04:49:08;;;;;;;;;;;7.10;99.90;;;;;;5084010;28;19956;-69
2022/11/30 04:51:35;;;;;;;;;;;7.10;99.90;;;;;;5073682;28;19952;-70
2022/11/30 04:54:00;;;;;;;;;;;7.10;99.90;;;;;;5090212;28;19934;-70
2022/11/30 04:56:26;;;;;;;;;;;7.00;99.90;;;;;;5092064;28;20335;-69
2022/11/30 04:58:51;;;;;;;;;;;7.00;99.90;;;;;;5092187;28;19908;-69
2022/11/30 05:01:17;;;;;;;;;;;7.00;99.90;;;;;;5093140;28;19962;-69
2022/11/30 05:03:43;;;;;;;;;;;7.00;99.90;;;;;;5093288;28;19919;-71
2022/11/30 05:06:08;;;;;;;;;;;7.00;99.90;;;;;;5092082;28;19920;-69
2022/11/30 05:08:34;;;;;;;;;;;7.10;99.90;;;;;;5091463;28;19923;-72
2022/11/30 05:11:00;;;;;;;;;;;7.10;99.90;;;;;;5093524;28;19908;-70
2022/11/30 05:13:25;;;;;;;;;;;7.10;99.90;;;;;;5102082;28;19908;-70
2022/11/30 05:15:52;;;;;;;;;;;7.10;99.90;;;;;;5100558;28;19908;-70
2022/11/30 05:18:18;;;;;;;;;;;7.10;99.90;;;;;;5074733;28;20317;-70
2022/11/30 05:20:47;;;;;;;;;;;7.20;99.90;;;;;;5073275;28;19955;-70
2022/11/30 05:23:13;;;;;;;;;;;7.20;99.90;;;;;;5072915;28;19909;-70
2022/11/30 05:25:39;;;;;;;;;;;7.20;99.90;;;;;;5073010;28;19913;-70
2022/11/30 05:28:04;;;;;;;;;;;7.20;99.90;;;;;;5072917;28;19913;-70
2022/11/30 05:30:30;;;;;;;;;;;7.20;99.90;;;;;;5072844;28;19909;-70
2022/11/30 05:32:56;;;;;;;;;;;7.20;99.90;;;;;;5073115;28;19909;-69
2022/11/30 05:35:21;;;;;;;;;;;7.20;99.90;;;;;;5072783;28;19915;-70
2022/11/30 05:37:47;;;;;;;;;;;7.20;99.90;;;;;;5073045;28;20009;-69
2022/11/30 05:40:12;;;;;;;;;;;7.20;99.90;;;;;;5072826;28;19909;-70
2022/11/30 05:42:38;;;;;;;;;;;7.20;99.90;;;;;;5073386;28;19909;-70
2022/11/30 05:45:04;;;;;;;;;;;7.20;99.90;;;;;;5072650;28;20024;-70
2022/11/30 05:47:29;;;;;;;;;;;7.20;99.90;;;;;;5096857;28;19988;-70
2022/11/30 05:49:55;;;;;;;;;;;7.30;99.90;;;;;;5092679;28;19954;-70
2022/11/30 05:52:21;;;;;;;;;;;7.20;99.90;;;;;;5092921;28;20383;-69
2022/11/30 05:54:46;;;;;;;;;;;7.20;99.90;;;;;;5092546;28;19908;-69
2022/11/30 05:57:12;;;;;;;;;;;7.20;99.90;;;;;;5090415;28;19916;-70
2022/11/30 05:59:37;;;;;;;;;;;7.20;99.90;;;;;;5072838;28;19927;-70
2022/11/30 06:02:03;;;;;;;;;;;7.20;99.90;;;;;;5072790;28;20229;-70
2022/11/30 06:04:29;;;;;;;;;;;7.20;99.90;;;;;;5072384;28;20290;-69
2022/11/30 06:06:54;;;;;;;;;;;7.20;99.90;;;;;;5072260;28;20379;-69
2022/11/30 06:09:20;;;;;;;;;;;7.20;99.90;;;;;;5072079;28;20379;-70
2022/11/30 06:11:46;;;;;;;;;;;7.20;99.90;;;;;;5072505;28;19942;-70
2022/11/30 06:14:12;;;;;;;;;;;7.20;99.90;;;;;;5084905;28;19908;-70
2022/11/30 06:16:38;;;;;;;;;;;7.20;99.90;;;;;;5083440;28;19919;-69
2022/11/30 06:19:04;;;;;;;;;;;7.20;99.90;;;;;;5077394;28;19919;-70
2022/11/30 06:21:29;;;;;;;;;;;7.20;99.90;;;;;;5075718;28;20008;-69
2022/11/30 06:23:55;;;;;;;;;;;7.20;99.90;;;;;;5085192;28;19919;-70
2022/11/30 06:26:21;;;;;;;;;;;7.20;99.90;;;;;;5081748;28;19923;-69
2022/11/30 06:28:47;;;;;;;;;;;7.20;99.90;;;;;;5087655;28;19912;-69
2022/11/30 06:31:13;;;;;;;;;;;7.20;99.90;;;;;;5094659;28;19908;-69
2022/11/30 06:33:38;;;;;;;;;;;7.20;99.90;;;;;;5095866;28;19912;-71
2022/11/30 06:36:04;;;;;;;;;;;7.20;99.90;;;;;;5093524;28;20445;-69
2022/11/30 06:38:30;;;;;;;;;;;7.20;99.90;;;;;;5094002;28;20440;-69
2022/11/30 06:41:01;;;;;;;;;;;7.20;99.90;;;;;;5095505;28;20011;-69
2022/11/30 06:43:30;;;;;;;;;;;7.20;99.90;;;;;;5095894;28;19924;-69
2022/11/30 06:45:56;;;;;;;;;;;7.10;99.90;;;;;;5087946;28;20315;-69
2022/11/30 06:48:22;;;;;;;;;;;7.20;99.90;;;;;;5123461;27;20070;-69
2022/11/30 06:50:47;;;;;;;;;;;7.20;99.90;;;;;;5075312;28;20326;-69
2022/11/30 06:53:13;;;;;;;;;;;7.20;99.90;;;;;;5081248;28;19982;-69
2022/11/30 06:55:38;;;;;;;;;;;7.20;99.90;;;;;;5093655;28;19968;-69
2022/11/30 06:58:07;;;;;;;;;;;7.20;99.90;;;;;;5095494;28;19923;-70
2022/11/30 07:00:33;;;;;;;;;;;7.20;99.90;;;;;;5093477;28;19916;-69
2022/11/30 07:02:59;;;;;;;;;;;7.20;99.90;;;;;;5093820;28;19923;-69
2022/11/30 07:05:24;;;;;;;;;;;7.30;99.90;;;;;;5093161;28;19924;-69
2022/11/30 07:07:50;;;;;;;;;;;7.30;99.90;;;;;;5094298;28;19912;-69
2022/11/30 07:10:16;;;;;;;;;;;7.30;99.90;;;;;;5096398;28;19912;-69
2022/11/30 07:12:41;;;;;;;;;;;7.20;99.90;;;;;;5092458;28;19912;-69
2022/11/30 07:15:07;;;;;;;;;;;7.30;99.90;;;;;;5093719;28;19955;-70
2022/11/30 07:17:33;;;;;;;;;;;7.40;99.90;;;;;;5093507;28;19981;-70
2022/11/30 07:19:59;;;;;;;;;;;7.30;99.90;;;;;;5093521;28;19916;-70
2022/11/30 07:22:24;;;;;;;;;;;7.40;99.90;;;;;;5090009;28;20419;-70
2022/11/30 07:27:34;;;;;;;;;;;7.40;99.90;;;;;;5088015;28;19934;-69
2022/11/30 07:30:00;;;;;;;;;;;7.40;99.90;;;;;;5095271;28;19908;-70
2022/11/30 07:32:25;;;;;;;;;;;7.40;99.90;;;;;;5093532;28;19919;-70
2022/11/30 07:34:51;;;;;;;;;;;7.50;99.90;;;;;;5083584;28;19923;-70
2022/11/30 07:37:16;;;;;;;;;;;7.50;99.90;;;;;;5092714;28;19908;-70
2022/11/30 07:39:42;;;;;;;;;;;7.50;99.90;;;;;;5093867;28;19908;-70
2022/11/30 07:42:08;;;;;;;;;;;7.50;99.90;;;;;;5094287;28;19916;-70
2022/11/30 07:44:33;;;;;;;;;;;7.50;99.90;;;;;;5093565;28;20003;-70
2022/11/30 07:46:59;;;;;;;;;;;7.60;99.90;;;;;;5090430;28;19916;-69
2022/11/30 07:49:25;;;;;;;;;;;7.60;99.90;;;;;;5093090;28;19920;-69
2022/11/30 07:51:51;;;;;;;;;;;7.50;99.90;;;;;;5094094;28;20403;-69
2022/11/30 07:54:16;;;;;;;;;;;7.50;99.90;;;;;;5094249;28;19908;-69
2022/11/30 07:56:42;;;;;;;;;;;7.50;99.90;;;;;;5088463;28;19909;-70
2022/11/30 07:59:08;;;;;;;;;;;7.60;99.90;;;;;;5074103;28;20174;-69
2022/11/30 08:01:34;;;;;;;;;;;7.50;99.90;;;;;;5073867;28;19915;-70
2022/11/30 08:03:59;;;;;;;;;;;7.50;99.90;;;;;;5081673;28;20337;-70
2022/11/30 08:06:26;;;;;;;;;;;7.60;99.90;;;;;;5094747;28;19939;-69
2022/11/30 08:08:53;;;;;;;;;;;7.60;99.90;;;;;;5094741;28;19912;-69
2022/11/30 08:11:20;;;;;;;;;;;7.60;99.90;;;;;;5094268;28;19908;-69
2022/11/30 08:13:46;;;;;;;;;;;7.60;99.90;;;;;;5088576;28;20002;-71
2022/11/30 08:16:13;;;;;;;;;;;7.60;99.90;;;;;;5073918;28;19947;-69
2022/11/30 08:18:39;;;;;;;;;;;7.60;99.90;;;;;;5092067;28;20169;-69
2022/11/30 08:21:06;;;;;;;;;;;7.70;99.90;;;;;;5078249;28;19912;-69
2022/11/30 08:23:33;;;;;;;;;;;7.70;99.90;;;;;;5074302;28;19919;-69
2022/11/30 08:26:06;;;;;;;;;;;7.70;99.90;;;;;;5073768;28;19948;-70
2022/11/30 08:28:32;;;;;;;;;;;7.70;99.90;;;;;;5073657;28;19916;-70
2022/11/30 08:30:58;;;;;;;;;;;7.70;99.90;;;;;;5075151;28;19908;-70
2022/11/30 08:33:24;;;;;;;;;;;7.80;99.90;;;;;;5075305;28;19972;-73
2022/11/30 08:35:49;;;;;;;;;;;7.70;99.90;;;;;;5073842;28;19932;-70
2022/11/30 08:38:15;;;;;;;;;;;7.80;99.90;;;;;;5074437;28;19916;-71
2022/11/30 08:40:41;;;;;;;;;;;7.80;99.90;;;;;;5074432;28;20014;-71
2022/11/30 08:43:06;;;;;;;;;;;7.80;99.90;;;;;;5073859;28;20053;-70
2022/11/30 08:45:32;;;;;;;;;;;7.80;99.90;;;;;;5075018;28;20414;-70
2022/11/30 08:47:58;;;;;;;;;;;7.80;99.90;;;;;;5080519;28;19919;-70
2022/11/30 08:50:23;;;;;;;;;;;7.80;99.90;;;;;;5084029;28;20393;-70
2022/11/30 08:52:49;;;;;;;;;;;7.90;99.90;;;;;;5093187;28;19915;-70
2022/11/30 08:55:14;;;;;;;;;;;7.90;99.90;;;;;;5092353;28;19912;-70
2022/11/30 08:57:40;;;;;;;;;;;8.00;99.90;;;;;;5093705;28;19954;-69
2022/11/30 09:00:06;;;;;;;;;;;8.00;99.90;;;;;;5093544;28;19908;-71
2022/11/30 09:02:32;;;;;;;;;;;8.00;99.90;;;;;;5092608;28;20375;-71
2022/11/30 09:04:57;;;;;;;;;;;8.00;99.90;;;;;;5084580;28;20020;-71
2022/11/30 09:07:23;;;;;;;;;;;8.00;99.90;;;;;;5074673;28;19909;-69
2022/11/30 09:09:49;;;;;;;;;;;8.00;99.90;;;;;;5073111;28;20402;-69
2022/11/30 09:12:14;;;;;;;;;;;8.00;99.90;;;;;;5071569;28;20370;-70
2022/11/30 09:14:40;;;;;;;;;;;8.10;99.90;;;;;;5073332;28;20438;-70
2022/11/30 09:17:06;;;;;;;;;;;8.10;99.90;;;;;;5073203;28;19909;-70
2022/11/30 09:19:31;;;;;;;;;;;8.20;99.90;;;;;;5079492;28;19912;-70
2022/11/30 09:21:57;;;;;;;;;;;8.20;99.90;;;;;;5089935;28;19922;-70
2022/11/30 09:24:23;;;;;;;;;;;8.20;99.90;;;;;;5092730;28;19908;-70
2022/11/30 09:26:48;;;;;;;;;;;8.30;99.90;;;;;;5088524;28;19996;-70
2022/11/30 09:29:14;;;;;;;;;;;8.30;99.90;;;;;;5092015;28;20434;-71
2022/11/30 09:31:40;;;;;;;;;;;8.30;99.90;;;;;;5090250;28;19916;-70
2022/11/30 09:34:05;;;;;;;;;;;8.30;99.90;;;;;;5092124;28;20236;-70
2022/11/30 09:36:32;;;;;;;;;;;8.30;99.90;;;;;;5092168;28;19923;-70
2022/11/30 09:38:58;;;;;;;;;;;8.30;99.90;;;;;;5088811;28;19919;-70
2022/11/30 09:41:42;;;;;;;;;;;8.30;99.90;;;;;;5090540;28;20287;-70
2022/11/30 09:44:26;;;;;;;;;;;8.20;99.90;;;;;;5089672;28;19912;-68
2022/11/30 09:47:12;;;;;;;;;;;8.20;99.90;;;;;;5088886;28;19923;-69
2022/11/30 09:49:40;;;;;;;;;;;8.40;99.90;;;;;;5077280;28;20022;-69
2022/11/30 09:52:10;;;;;;;;;;;8.50;99.90;;;;;;5083835;28;19966;-69
2022/11/30 09:54:37;;;;;;;;;;;8.60;99.90;;;;;;5094558;28;20002;-69
2022/11/30 09:57:07;;;;;;;;;;;8.70;99.90;;;;;;5085753;28;19939;-69
2022/11/30 09:59:35;;;;;;;;;;;8.70;99.90;;;;;;5095780;28;20274;-71
2022/11/30 10:02:09;;;;;;;;;;;8.80;99.90;;;;;;5096773;28;19951;-68
2022/11/30 10:04:35;;;;;;;;;;;8.90;99.90;;;;;;5089913;28;19921;-69
2022/11/30 10:07:19;;;;;;;;;;;8.90;99.90;;;;;;5090630;28;19919;-71
2022/11/30 10:09:52;;;;;;;;;;;8.90;99.90;;;;;;5077955;28;19920;-70
2022/11/30 10:12:38;;;;;;;;;;;8.90;99.90;;;;;;5093996;28;20002;-69
2022/11/30 10:15:22;;;;;;;;;;;8.90;99.90;;;;;;5092220;28;19912;-70
2022/11/30 10:17:54;;;;;;;;;;;9.00;99.90;;;;;;5093835;28;20007;-70
2022/11/30 10:20:29;;;;;;;;;;;9.10;99.90;;;;;;5093551;28;19908;-70
2022/11/30 10:23:11;;;;;;;;;;;9.10;99.90;;;;;;5095257;28;19956;-69
2022/11/30 10:25:42;;;;;;;;;;;9.20;99.90;;;;;;5094828;28;19912;-70
2022/11/30 10:28:14;;;;;;;;;;;9.30;99.90;;;;;;5087438;28;19919;-70
2022/11/30 10:30:39;;;;;;;;;;;9.20;99.90;;;;;;5086313;28;19916;-69
2022/11/30 10:33:17;;;;;;;;;;;9.20;99.90;;;;;;5092849;28;19915;-68
2022/11/30 10:35:53;;;;;;;;;;;9.10;99.90;;;;;;5091921;28;19919;-70
2022/11/30 10:38:22;;;;;;;;;;;9.20;99.90;;;;;;5094057;28;19919;-71
2022/11/30 10:40:51;;;;;;;;;;;9.20;99.90;;;;;;5094769;28;19912;-71
2022/11/30 10:43:29;;;;;;;;;;;9.10;99.90;;;;;;5092553;28;19991;-71
2022/11/30 10:45:54;;;;;;;;;;;9.10;99.90;;;;;;5089581;28;19916;-71
2022/11/30 10:48:20;;;;;;;;;;;9.20;99.90;;;;;;5091368;28;19912;-71
2022/11/30 10:50:46;;;;;;;;;;;9.30;99.90;;;;;;5095269;28;19912;-71
2022/11/30 10:53:12;;;;;;;;;;;9.30;99.90;;;;;;5093131;28;19927;-71
2022/11/30 10:55:43;;;;;;;;;;;9.20;99.90;;;;;;5094188;28;20334;-70
2022/11/30 10:58:13;;;;;;;;;;;9.10;99.90;;;;;;5093775;28;19954;-70
2022/11/30 11:00:51;;;;;;;;;;;9.10;99.90;;;;;;5092538;28;19920;-71
2022/11/30 11:03:24;;;;;;;;;;;9.10;99.90;;;;;;5092953;28;20306;-70
2022/11/30 11:06:02;;;;;;;;;;;9.00;99.90;;;;;;5087908;28;19919;-72
2022/11/30 11:08:27;;;;;;;;;;;9.10;99.90;;;;;;5094883;28;19908;-71
2022/11/30 11:10:53;;;;;;;;;;;9.00;99.90;;;;;;5088944;28;20545;-70
2022/11/30 11:13:34;;;;;;;;;;;9.00;99.90;;;;;;5085800;28;19986;-71
2022/11/30 11:16:00;;;;;;;;;;;9.10;99.90;;;;;;5093291;28;19919;-71
2022/11/30 11:18:30;;;;;;;;;;;9.10;99.90;;;;;;5092488;28;19908;-70
2022/11/30 11:21:03;;;;;;;;;;;9.10;99.90;;;;;;5087154;28;20013;-70
2022/11/30 11:23:30;;;;;;;;;;;9.20;99.90;;;;;;5089376;28;20374;-71
2022/11/30 11:25:56;;;;;;;;;;;9.30;99.90;;;;;;5082397;28;19923;-70
2022/11/30 11:28:24;;;;;;;;;;;9.20;99.90;;;;;;5093711;28;19912;-70
2022/11/30 11:30:55;;;;;;;;;;;9.30;99.90;;;;;;5094268;28;20002;-70
2022/11/30 11:33:23;;;;;;;;;;;9.40;99.90;;;;;;5088707;28;19958;-70
2022/11/30 11:35:50;;;;;;;;;;;9.40;99.90;;;;;;5091736;28;19908;-70
2022/11/30 11:38:28;;;;;;;;;;;9.50;99.90;;;;;;5084118;28;19948;-70
2022/11/30 11:40:57;;;;;;;;;;;9.40;99.90;;;;;;5085817;28;19930;-70
2022/11/30 11:43:24;;;;;;;;;;;9.50;99.90;;;;;;5093454;28;19908;-70
2022/11/30 11:45:52;;;;;;;;;;;9.60;99.90;;;;;;5093620;28;19957;-71
2022/11/30 11:48:29;;;;;;;;;;;9.50;99.90;;;;;;5093534;28;19914;-70
2022/11/30 11:50:59;;;;;;;;;;;9.50;99.90;;;;;;5092872;28;19920;-70
2022/11/30 11:53:34;;;;;;;;;;;9.30;99.90;;;;;;5093064;28;20487;-70
2022/11/30 11:56:03;;;;;;;;;;;9.40;99.90;;;;;;5077223;28;19915;-71
2022/11/30 11:58:36;;;;;;;;;;;9.50;99.90;;;;;;5087017;28;19912;-69
2022/11/30 12:01:03;;;;;;;;;;;9.50;99.90;;;;;;5083029;28;20287;-69
2022/11/30 12:03:45;;;;;;;;;;;9.60;99.90;;;;;;5091603;28;19968;-71
2022/11/30 12:06:13;;;;;;;;;;;9.70;99.90;;;;;;5093216;28;19916;-71
2022/11/30 12:08:42;;;;;;;;;;;9.60;99.90;;;;;;5092990;28;19909;-71
2022/11/30 12:11:11;;;;;;;;;;;9.50;99.90;;;;;;5083199;28;19961;-75
2022/11/30 12:13:37;;;;;;;;;;;9.40;99.90;;;;;;5079772;28;19912;-71
2022/11/30 12:16:18;;;;;;;;;;;9.40;99.90;;;;;;5090533;28;19919;-71
2022/11/30 12:18:58;;;;;;;;;;;9.40;99.90;;;;;;5089422;28;19931;-71
2022/11/30 12:21:59;;;;;;;;;;;9.50;99.90;;;;;;5090235;28;19915;-71
2022/11/30 12:24:28;;;;;;;;;;;9.50;99.90;;;;;;5032892;28;19947;-71
2022/11/30 12:26:59;;;;;;;;;;;9.50;99.90;;;;;;5080247;28;20306;-71
2022/11/30 12:29:43;;;;;;;;;;;9.50;99.90;;;;;;5083029;28;20248;-71
2022/11/30 12:32:12;;;;;;;;;;;9.60;99.90;;;;;;5072723;28;19908;-70
2022/11/30 12:34:56;;;;;;;;;;;9.60;99.90;;;;;;5080210;28;19912;-71
2022/11/30 12:37:30;;;;;;;;;;;9.60;99.90;;;;;;5094650;28;20283;-71
2022/11/30 12:40:02;;;;;;;;;;;9.60;99.90;;;;;;5085793;28;19919;-71
2022/11/30 12:42:37;;;;;;;;;;;9.50;99.90;;;;;;5093243;28;19908;-70
2022/11/30 12:45:23;;;;;;;;;;;9.40;99.90;;;;;;5097147;28;19958;-69
2022/11/30 12:47:51;;;;;;;;;;;9.40;99.90;;;;;;5107433;28;19907;-67
2022/11/30 12:50:36;;;;;;;;;;;9.50;99.90;;;;;;5108811;28;19912;-70
2022/11/30 12:53:17;;;;;;;;;;;9.40;99.90;;;;;;5095540;28;19915;-70
2022/11/30 12:55:49;;;;;;;;;;;9.30;99.90;;;;;;5111904;28;19912;-69
2022/11/30 12:58:14;;;;;;;;;;;9.20;99.90;;;;;;5107467;28;20284;-66
2022/11/30 13:00:43;;;;;;;;;;;9.10;99.90;;;;;;5115301;28;19912;-67
2022/11/30 13:03:27;;;;;;;;;;;9.10;99.90;;;;;;5115548;28;19919;-71
2022/11/30 13:05:56;;;;;;;;;;;9.00;99.90;;;;;;5104646;28;20302;-68
2022/11/30 13:08:45;;;;;;;;;;;9.00;99.90;;;;;;5111832;28;19962;-64
2022/11/30 13:11:17;;;;;;;;;;;9.00;99.90;;;;;;5105241;28;19916;-67
2022/11/30 13:13:47;;;;;;;;;;;9.00;99.90;;;;;;5113755;28;19912;-67
2022/11/30 13:16:13;;;;;;;;;;;9.00;99.90;;;;;;5115420;28;19933;-68
2022/11/30 13:18:40;;;;;;;;;;;9.00;99.90;;;;;;5113341;28;20344;-68
2022/11/30 13:21:15;;;;;;;;;;;9.10;99.90;;;;;;5104939;28;19912;-68
2022/11/30 13:24:01;;;;;;;;;;;9.10;99.90;;;;;;5098370;28;19918;-69
2022/11/30 13:26:35;;;;;;;;;;;9.10;99.90;;;;;;5089133;28;19920;-69
2022/11/30 13:29:15;;;;;;;;;;;9.00;99.90;;;;;;5113168;27;19918;-68
2022/11/30 13:31:50;;;;;;;;;;;9.00;99.90;;;;;;5108878;28;20379;-68
2022/11/30 13:34:23;;;;;;;;;;;9.00;99.90;;;;;;5116607;27;19969;-69
2022/11/30 13:36:49;;;;;;;;;;;9.10;99.90;;;;;;5110509;27;20007;-68
2022/11/30 13:39:21;;;;;;;;;;;9.20;99.90;;;;;;5111790;28;20002;-69
2022/11/30 13:41:48;;;;;;;;;;;9.20;99.90;;;;;;5114347;27;19916;-71
2022/11/30 13:44:33;;;;;;;;;;;9.10;99.90;;;;;;5115696;28;19964;-68
2022/11/30 13:47:00;;;;;;;;;;;9.20;99.90;;;;;;5117251;28;19915;-68
2022/11/30 13:49:28;;;;;;;;;;;9.20;99.90;;;;;;5119044;28;19911;-68
2022/11/30 13:51:54;;;;;;;;;;;9.10;99.90;;;;;;5117842;28;20049;-68
2022/11/30 13:54:39;;;;;;;;;;;9.10;99.90;;;;;;5100070;28;19915;-69
2022/11/30 13:57:23;;;;;;;;;;;9.10;99.90;;;;;;5100985;28;19936;-68
2022/11/30 13:59:52;;;;;;;;;;;9.00;99.90;;;;;;5100536;28;19933;-68
2022/11/30 14:02:35;;;;;;;;;;;8.90;99.90;;;;;;5120827;28;19915;-69
2022/11/30 14:05:19;;;;;;;;;;;8.90;99.90;;;;;;5103830;28;19961;-67
2022/11/30 14:07:44;;;;;;;;;;;8.90;99.90;;;;;;5116426;28;19915;-68
2022/11/30 14:10:33;;;;;;;;;;;8.80;99.90;;;;;;5115615;28;19908;-68
2022/11/30 14:13:22;;;;;;;;;;;8.90;99.90;;;;;;5088027;28;20347;-67
2022/11/30 14:15:53;;;;;;;;;;;8.90;99.90;;;;;;5086781;28;19908;-67
2022/11/30 14:18:18;;;;;;;;;;;8.90;99.90;;;;;;5114103;27;19965;-67
2022/11/30 14:20:52;;;;;;;;;;;8.80;99.90;;;;;;5111458;28;19971;-67
2022/11/30 14:23:26;;;;;;;;;;;8.70;99.90;;;;;;5113547;28;19943;-65
2022/11/30 14:25:56;;;;;;;;;;;8.70;99.90;;;;;;5113717;28;19918;-66
2022/11/30 14:28:28;;;;;;;;;;;8.70;99.90;;;;;;5111971;28;19999;-64
2022/11/30 14:30:54;;;;;;;;;;;8.70;99.90;;;;;;5113912;28;19908;-67
2022/11/30 14:33:26;;;;;;;;;;;8.70;99.90;;;;;;5113864;28;19937;-67
2022/11/30 14:35:54;;;;;;;;;;;8.60;99.90;;;;;;5113507;28;19977;-65
2022/11/30 14:38:29;;;;;;;;;;;8.60;99.90;;;;;;5112994;28;19912;-67
2022/11/30 14:40:55;;;;;;;;;;;8.60;99.90;;;;;;5114274;28;20326;-67
2022/11/30 14:43:21;;;;;;;;;;;8.60;99.90;;;;;;5115292;28;19915;-67